Weather at Trstenik Airfield

Public forecast

Using degrees Celsius for public forecast. Weather courtesy of forecast.io.

Closest aviation weather report (METAR) to Trstenik Airfield

Closest report is Morava Airport, 22.8 nm (42.2 km) WNW.

2024/05/18 10:30 (retrieved 39 minutes ago)

LYKV 181030Z VRB01KT 9999 FEW050 25/09 Q1015 NOSIG

Closest aviation forecast (TAF) to Trstenik Airfield

Closest forecast is Morava Airport, 22.8 nm (42.2 km) WNW.

2024/05/18 06:00 (retrieved 5 hours ago)

TAF LYKV 180500Z 1806/1906 12004KT CAVOK TX25/1814Z TN10/1903Z TEMPO 1903/1905 3000 BR